Time,TemperatureF,DewpointF,PressureIn,WindDirection,WindDirectionDegrees,WindSpeedMPH,WindSpeedGustMPH,Humidity,HourlyPrecipIn,Conditions,Clouds,dailyrainin,SoftwareType,DateUTC
2013-01-12 00:02:00,36.0,31.0,30.17,NNE,20,1.0,2.0,83,0.00,,,0.00,,2013-01-12 08:02:00,
2013-01-12 00:11:00,36.0,31.0,30.17,NNE,20,1.0,2.0,83,0.00,,,0.00,,2013-01-12 08:11:00,
2013-01-12 00:22:00,36.0,31.0,30.18,NNE,18,0.0,1.0,82,0.00,,,0.00,,2013-01-12 08:22:00,
2013-01-12 00:32:00,37.0,31.0,30.18,East,90,1.0,3.0,80,0.00,,,0.00,,2013-01-12 08:32:00,
2013-01-12 00:42:00,37.0,31.0,30.18,East,90,1.0,3.0,80,0.00,,,0.00,,2013-01-12 08:42:00,
2013-01-12 00:52:00,37.0,31.0,30.16,East,91,0.0,1.0,80,0.00,,,0.00,,2013-01-12 08:52:00,
2013-01-12 01:02:00,37.0,31.0,30.17,East,99,1.0,3.0,80,0.00,,,0.00,,2013-01-12 09:02:00,
2013-01-12 01:11:00,37.0,31.0,30.17,East,99,1.0,3.0,80,0.00,,,0.00,,2013-01-12 09:11:00,
2013-01-12 01:22:00,37.0,31.0,30.17,East,100,1.0,2.0,79,0.00,,,0.00,,2013-01-12 09:22:00,
2013-01-12 01:32:00,37.0,31.0,30.17,SSW,201,0.0,6.0,78,0.00,,,0.00,,2013-01-12 09:32:00,
2013-01-12 01:42:00,37.0,31.0,30.17,SSW,201,0.0,6.0,78,0.00,,,0.00,,2013-01-12 09:42:00,
2013-01-12 01:53:00,37.0,30.0,30.17,SSW,203,0.0,2.0,77,0.00,,,0.00,,2013-01-12 09:53:00,
2013-01-12 02:02:00,37.0,30.0,30.17,SSW,203,1.0,2.0,77,0.00,,,0.00,,2013-01-12 10:02:00,
2013-01-12 02:11:00,37.0,30.0,30.17,SSW,203,1.0,2.0,77,0.00,,,0.00,,2013-01-12 10:11:00,
2013-01-12 02:22:00,37.0,30.0,30.17,SE,130,0.0,2.0,76,0.00,,,0.00,,2013-01-12 10:22:00,
2013-01-12 02:32:00,36.0,30.0,30.17,SE,127,0.0,1.0,78,0.00,,,0.00,,2013-01-12 10:32:00,
2013-01-12 02:42:00,36.0,30.0,30.17,SE,127,0.0,1.0,78,0.00,,,0.00,,2013-01-12 10:42:00,
2013-01-12 02:52:00,37.0,31.0,30.17,SE,127,0.0,1.0,78,0.00,,,0.00,,2013-01-12 10:52:00,
2013-01-12 03:02:00,36.0,29.0,30.17,SE,127,1.0,2.0,76,0.00,,,0.00,,2013-01-12 11:02:00,
2013-01-12 03:12:00,36.0,29.0,30.17,SE,127,1.0,2.0,76,0.00,,,0.00,,2013-01-12 11:12:00,
2013-01-12 03:22:00,36.0,30.0,30.18,SE,127,0.0,0.0,78,0.00,,,0.00,,2013-01-12 11:22:00,
2013-01-12 03:32:00,36.0,30.0,30.17,SE,127,1.0,2.0,78,0.00,,,0.00,,2013-01-12 11:32:00,
2013-01-12 03:42:00,36.0,30.0,30.17,SE,127,1.0,2.0,78,0.00,,,0.00,,2013-01-12 11:42:00,
2013-01-12 03:53:00,35.0,29.0,30.17,SE,127,0.0,2.0,79,0.00,,,0.00,,2013-01-12 11:53:00,
2013-01-12 04:02:00,34.0,29.0,30.17,SE,127,0.0,1.0,83,0.00,,,0.00,,2013-01-12 12:02:00,
2013-01-12 04:11:00,34.0,29.0,30.17,SE,127,0.0,1.0,83,0.00,,,0.00,,2013-01-12 12:11:00,
2013-01-12 04:22:00,34.0,30.0,30.18,East,98,0.0,1.0,85,0.00,,,0.00,,2013-01-12 12:22:00,
2013-01-12 04:32:00,33.0,29.0,30.17,East,98,0.0,1.0,85,0.00,,,0.00,,2013-01-12 12:32:00,
2013-01-12 04:42:00,33.0,29.0,30.17,East,98,0.0,1.0,85,0.00,,,0.00,,2013-01-12 12:42:00,
2013-01-12 04:52:00,33.0,29.0,30.16,East,98,0.0,1.0,86,0.00,,,0.00,,2013-01-12 12:52:00,
2013-01-12 05:02:00,33.0,29.0,30.17,East,98,1.0,1.0,85,0.00,,,0.00,,2013-01-12 13:02:00,
2013-01-12 05:11:00,33.0,29.0,30.17,East,98,1.0,1.0,85,0.00,,,0.00,,2013-01-12 13:11:00,
2013-01-12 05:22:00,33.0,29.0,30.17,East,98,0.0,1.0,85,0.00,,,0.00,,2013-01-12 13:22:00,
2013-01-12 05:32:00,33.0,29.0,30.17,East,98,1.0,1.0,86,0.00,,,0.00,,2013-01-12 13:32:00,
2013-01-12 05:42:00,33.0,29.0,30.17,East,98,1.0,1.0,86,0.00,,,0.00,,2013-01-12 13:42:00,
2013-01-12 05:53:00,33.0,30.0,30.18,East,98,1.0,1.0,87,0.00,,,0.00,,2013-01-12 13:53:00,
2013-01-12 06:02:00,33.0,30.0,30.19,East,98,0.0,1.0,87,0.00,,,0.00,,2013-01-12 14:02:00,
2013-01-12 06:12:00,33.0,30.0,30.19,East,98,0.0,1.0,87,0.00,,,0.00,,2013-01-12 14:12:00,
2013-01-12 06:22:00,33.0,30.0,30.19,East,98,1.0,1.0,88,0.00,,,0.00,,2013-01-12 14:22:00,
2013-01-12 06:32:00,33.0,29.0,30.20,East,98,0.0,1.0,85,0.00,,,0.00,,2013-01-12 14:32:00,
2013-01-12 06:43:00,33.0,29.0,30.20,East,98,0.0,1.0,85,0.00,,,0.00,,2013-01-12 14:43:00,
2013-01-12 06:53:00,32.0,29.0,30.19,East,98,0.0,1.0,89,0.00,,,0.00,,2013-01-12 14:53:00,
2013-01-12 07:03:00,32.0,28.0,30.20,East,98,0.0,1.0,85,0.00,,,0.00,,2013-01-12 15:03:00,
2013-01-12 07:12:00,32.0,28.0,30.20,East,98,0.0,1.0,85,0.00,,,0.00,,2013-01-12 15:12:00,
2013-01-12 07:22:00,32.0,28.0,30.20,East,98,0.0,2.0,86,0.00,,,0.00,,2013-01-12 15:22:00,
2013-01-12 07:33:00,32.0,27.0,30.20,East,98,0.0,1.0,83,0.00,,,0.00,,2013-01-12 15:33:00,
2013-01-12 07:42:00,32.0,27.0,30.20,East,98,0.0,1.0,83,0.00,,,0.00,,2013-01-12 15:42:00,
2013-01-12 07:53:00,32.0,25.0,30.20,East,98,0.0,1.0,74,0.00,,,0.00,,2013-01-12 15:53:00,
2013-01-12 08:02:00,34.0,24.0,30.21,SE,128,1.0,3.0,67,0.00,,,0.00,,2013-01-12 16:02:00,
2013-01-12 08:12:00,34.0,24.0,30.21,SE,128,1.0,3.0,67,0.00,,,0.00,,2013-01-12 16:12:00,
2013-01-12 08:22:00,34.0,23.0,30.21,SE,146,1.0,4.0,64,0.00,,,0.00,,2013-01-12 16:22:00,
2013-01-12 08:32:00,35.0,24.0,30.22,SE,138,1.0,3.0,63,0.00,,,0.00,,2013-01-12 16:32:00,
2013-01-12 08:42:00,35.0,24.0,30.22,SE,138,1.0,3.0,63,0.00,,,0.00,,2013-01-12 16:42:00,
2013-01-12 08:53:00,38.0,23.0,30.22,South,181,2.0,4.0,54,0.00,,,0.00,,2013-01-12 16:53:00,
2013-01-12 09:02:00,39.0,22.0,30.22,SSE,153,2.0,6.0,50,0.00,,,0.00,,2013-01-12 17:02:00,
2013-01-12 09:12:00,39.0,22.0,30.22,SSE,153,2.0,6.0,50,0.00,,,0.00,,2013-01-12 17:12:00,
2013-01-12 09:22:00,40.0,23.0,30.22,South,169,2.0,5.0,51,0.00,,,0.00,,2013-01-12 17:22:00,
2013-01-12 09:32:00,40.0,24.0,30.22,South,185,3.0,5.0,52,0.00,,,0.00,,2013-01-12 17:32:00,
2013-01-12 09:42:00,40.0,24.0,30.22,South,185,3.0,5.0,52,0.00,,,0.00,,2013-01-12 17:42:00,
2013-01-12 09:53:00,41.0,29.0,30.23,WSW,251,1.0,2.0,61,0.00,,,0.00,,2013-01-12 17:53:00,
2013-01-12 10:02:00,41.0,29.0,30.23,SSW,193,2.0,4.0,63,0.00,,,0.00,,2013-01-12 18:02:00,
2013-01-12 10:12:00,41.0,29.0,30.23,SSW,193,2.0,4.0,63,0.00,,,0.00,,2013-01-12 18:12:00,
2013-01-12 10:22:00,41.0,32.0,30.23,SSW,192,2.0,6.0,69,0.00,,,0.00,,2013-01-12 18:22:00,
2013-01-12 10:33:00,41.0,32.0,30.22,SSE,148,2.0,5.0,69,0.00,,,0.00,,2013-01-12 18:33:00,
2013-01-12 10:42:00,41.0,32.0,30.22,SSE,148,2.0,5.0,69,0.00,,,0.00,,2013-01-12 18:42:00,
2013-01-12 10:52:00,42.0,32.0,30.22,SW,229,1.0,4.0,68,0.00,,,0.00,,2013-01-12 18:52:00,
2013-01-12 11:02:00,43.0,32.0,30.22,SSW,209,2.0,4.0,64,0.00,,,0.00,,2013-01-12 19:02:00,
2013-01-12 11:12:00,43.0,32.0,30.22,SSW,209,2.0,4.0,64,0.00,,,0.00,,2013-01-12 19:12:00,
2013-01-12 11:22:00,43.0,30.0,30.21,South,174,3.0,5.0,60,0.00,,,0.00,,2013-01-12 19:22:00,
2013-01-12 11:32:00,45.0,27.0,30.20,SW,230,1.0,4.0,48,0.00,,,0.00,,2013-01-12 19:32:00,
2013-01-12 11:42:00,45.0,27.0,30.20,SW,230,1.0,4.0,48,0.00,,,0.00,,2013-01-12 19:42:00,
2013-01-12 11:52:00,46.0,26.0,30.19,SSW,193,2.0,6.0,46,0.00,,,0.00,,2013-01-12 19:52:00,
2013-01-12 12:02:00,45.0,29.0,30.19,South,176,1.0,5.0,53,0.00,,,0.00,,2013-01-12 20:02:00,
2013-01-12 12:12:00,45.0,29.0,30.19,South,176,1.0,5.0,53,0.00,,,0.00,,2013-01-12 20:12:00,
2013-01-12 12:22:00,46.0,30.0,30.18,South,171,3.0,6.0,54,0.00,,,0.00,,2013-01-12 20:22:00,
2013-01-12 12:32:00,46.0,29.0,30.17,East,83,3.0,6.0,51,0.00,,,0.00,,2013-01-12 20:32:00,
2013-01-12 12:42:00,46.0,29.0,30.17,East,83,3.0,6.0,51,0.00,,,0.00,,2013-01-12 20:42:00,
2013-01-12 12:53:00,46.0,29.0,30.16,SSW,213,2.0,7.0,52,0.00,,,0.00,,2013-01-12 20:53:00,
2013-01-12 13:02:00,47.0,30.0,30.16,SSW,203,2.0,7.0,52,0.00,,,0.00,,2013-01-12 21:02:00,
2013-01-12 13:12:00,47.0,30.0,30.16,SSW,203,2.0,7.0,52,0.00,,,0.00,,2013-01-12 21:12:00,
2013-01-12 13:22:00,47.0,30.0,30.15,SE,126,2.0,6.0,51,0.00,,,0.00,,2013-01-12 21:22:00,
2013-01-12 13:32:00,46.0,29.0,30.15,WSW,257,4.0,8.0,52,0.00,,,0.00,,2013-01-12 21:32:00,
2013-01-12 13:42:00,46.0,29.0,30.15,WSW,257,4.0,8.0,52,0.00,,,0.00,,2013-01-12 21:42:00,
2013-01-12 13:53:00,47.0,29.0,30.15,South,176,3.0,8.0,49,0.00,,,0.00,,2013-01-12 21:53:00,
2013-01-12 14:02:00,47.0,29.0,30.14,SE,144,2.0,6.0,49,0.00,,,0.00,,2013-01-12 22:02:00,
2013-01-12 14:12:00,47.0,29.0,30.14,SE,144,2.0,6.0,49,0.00,,,0.00,,2013-01-12 22:12:00,
2013-01-12 14:22:00,47.0,29.0,30.14,SE,128,3.0,6.0,50,0.00,,,0.00,,2013-01-12 22:22:00,
2013-01-12 14:32:00,47.0,30.0,30.14,South,171,2.0,7.0,51,0.00,,,0.00,,2013-01-12 22:32:00,
2013-01-12 14:42:00,47.0,30.0,30.14,South,171,2.0,7.0,51,0.00,,,0.00,,2013-01-12 22:42:00,
2013-01-12 14:53:00,47.0,30.0,30.14,SSW,203,3.0,8.0,51,0.00,,,0.00,,2013-01-12 22:53:00,
2013-01-12 15:02:00,47.0,29.0,30.14,SW,221,3.0,6.0,50,0.00,,,0.00,,2013-01-12 23:02:00,
2013-01-12 15:12:00,47.0,29.0,30.14,SW,221,3.0,6.0,50,0.00,,,0.00,,2013-01-12 23:12:00,
2013-01-12 15:22:00,47.0,30.0,30.13,SW,235,1.0,5.0,51,0.00,,,0.00,,2013-01-12 23:22:00,
2013-01-12 15:32:00,47.0,30.0,30.12,SSE,161,2.0,6.0,51,0.00,,,0.00,,2013-01-12 23:32:00,
2013-01-12 15:42:00,47.0,30.0,30.12,SSE,161,2.0,6.0,51,0.00,,,0.00,,2013-01-12 23:42:00,
2013-01-12 15:53:00,47.0,31.0,30.12,WSW,247,2.0,6.0,53,0.00,,,0.00,,2013-01-12 23:53:00,
2013-01-12 16:02:00,47.0,30.0,30.12,South,180,2.0,4.0,51,0.00,,,0.00,,2013-01-13 00:02:00,
2013-01-12 16:12:00,47.0,30.0,30.12,South,180,2.0,4.0,51,0.00,,,0.00,,2013-01-13 00:12:00,
2013-01-12 16:22:00,47.0,30.0,30.12,SSW,198,2.0,5.0,52,0.00,,,0.00,,2013-01-13 00:22:00,
2013-01-12 16:32:00,47.0,30.0,30.11,SW,230,2.0,4.0,51,0.00,,,0.00,,2013-01-13 00:32:00,
2013-01-12 16:42:00,47.0,30.0,30.11,SW,230,2.0,4.0,51,0.00,,,0.00,,2013-01-13 00:42:00,
2013-01-12 16:53:00,46.0,30.0,30.11,SSW,194,2.0,3.0,53,0.00,,,0.00,,2013-01-13 00:53:00,
2013-01-12 17:02:00,46.0,30.0,30.12,SSW,194,1.0,3.0,54,0.00,,,0.00,,2013-01-13 01:02:00,
2013-01-12 17:12:00,46.0,30.0,30.12,SSW,194,1.0,3.0,54,0.00,,,0.00,,2013-01-13 01:12:00,
2013-01-12 17:22:00,46.0,30.0,30.12,SSW,194,1.0,3.0,54,0.00,,,0.00,,2013-01-13 01:22:00,
2013-01-12 17:32:00,46.0,30.0,30.12,SSW,194,1.0,3.0,54,0.00,,,0.00,,2013-01-13 01:32:00,
2013-01-12 23:02:00,36.0,26.0,30.17,ENE,65,1.0,2.0,66,0.00,,,0.00,,2013-01-13 07:02:00,
2013-01-12 23:12:00,36.0,26.0,30.17,ENE,65,1.0,2.0,66,0.00,,,0.00,,2013-01-13 07:12:00,
2013-01-12 23:22:00,36.0,25.0,30.17,East,101,1.0,2.0,65,0.00,,,0.00,,2013-01-13 07:22:00,
2013-01-12 23:32:00,35.0,25.0,30.18,NNE,27,0.0,1.0,66,0.00,,,0.00,,2013-01-13 07:32:00,
2013-01-12 23:42:00,35.0,25.0,30.18,NNE,27,0.0,1.0,66,0.00,,,0.00,,2013-01-13 07:42:00,
2013-01-12 23:52:00,35.0,26.0,30.18,NNE,27,1.0,2.0,69,0.00,,,0.00,,2013-01-13 07:52:00,